Аэропорт: Братск. Братск

ICAO: UIBB

METAR:
2019-11-21 09:00:00
UIBB 210900Z 25004MPS 220V280 9999 FEW018 M20/M23 Q1015 R30/490242 NOSIG RMK QFE719/0958
METAR:
2019-11-21 08:00:00
TAF UIBB 210800Z 2109/2209 27003G10MPS 6000 -SHSN BKN016CB TEMPO 2109/2206 1000 SHSN VV005